»·PEaware :: N5MR KMHV-KSBD

N5MR :: KMHV-KSBD

FLIGHT INFORMATION

Flight Status: Arrived
Operator: Privately registered:
United States
More flights under this callsign
Pilot: Gavin B. (19371)
Aircraft: BEECH AIRCRAFT DEBONAIR BONANZA
(BE33)
More flights by this aircraft type
Origin: KMHV Mojave
United States
Destination: KSBD San Bernardino Intl
United States
More flights between these airports :: More routes between these airports
Route:
File this flight plan on PilotEdge
Remarks:
Altitude:
(Current/Filed)
9,500ft
Speed:
(Current/Filed)
140kts
Departed: 09-Sep-18 09:50 AM
Arrived: 09-Sep-18 10:23 AM
Distance/Time
Traveled:
73nm/0:33
Distance/Time
To Go:
Arrived

Flight Plot

Page will automatically refresh every two minutes.

Flight plan parsing failed; only flown route is shown


Map Options




Map Legend


Flown Route
Filed Route
Departure Airport
Arrival Airport
Navaid (VOR, NDB)
Fix

Horizontal Profiles

Position Reports

Time Latitude Longitude Heading Altitude Ground
Speed
09-Sep-18 09:33 35.048213 -118.140596 87 2769ft 0kts
09-Sep-18 09:34 35.048213 -118.140596 87 2769ft 0kts
09-Sep-18 09:35 35.048213 -118.140596 87 2769ft 0kts
09-Sep-18 09:36 35.048213 -118.140596 87 2769ft 0kts
09-Sep-18 09:37 35.048213 -118.140595 87 2769ft 0kts
09-Sep-18 09:38 35.048213 -118.140596 87 2769ft 0kts
09-Sep-18 09:39 35.048213 -118.140595 87 2769ft 0kts
09-Sep-18 09:40 35.048213 -118.140595 87 2769ft 0kts
09-Sep-18 09:41 35.048213 -118.140595 87 2769ft 0kts
09-Sep-18 09:42 35.048213 -118.140595 87 2769ft 0kts
09-Sep-18 09:43 35.048213 -118.140595 87 2769ft 0kts
09-Sep-18 09:44 35.048213 -118.140595 87 2769ft 0kts
09-Sep-18 09:45 35.048213 -118.140595 87 2769ft 0kts
09-Sep-18 09:46 35.049417 -118.138955 315 2769ft 23kts
09-Sep-18 09:47 35.054237 -118.144782 317 2769ft 26kts
09-Sep-18 09:48 35.057631 -118.146119 91 2769ft 19kts
09-Sep-18 09:49 35.057995 -118.142675 0 2769ft 13kts
09-Sep-18 09:50 35.058361 -118.142647 0 2769ft 0kts
09-Sep-18 09:51 35.058361 -118.142647 0 2769ft 0kts
09-Sep-18 09:52 35.059022 -118.156593 271 2900ft 103kts
09-Sep-18 09:53 35.042970 -118.176937 172 3877ft 114kts
09-Sep-18 09:54 35.039397 -118.140759 103 4519ft 128kts
09-Sep-18 09:55 35.014246 -118.106634 138 5030ft 141kts
09-Sep-18 09:56 34.983072 -118.077019 138 5537ft 142kts
09-Sep-18 09:57 34.952120 -118.047311 138 6038ft 141kts
09-Sep-18 09:58 34.918520 -118.024280 187 6529ft 147kts
09-Sep-18 09:59 34.882872 -118.043988 174 7021ft 147kts
09-Sep-18 10:00 34.841995 -118.041616 174 7517ft 147kts
09-Sep-18 10:01 34.801870 -118.036016 143 8012ft 143kts
09-Sep-18 10:02 34.790079 -117.993645 93 8520ft 136kts
09-Sep-18 10:03 34.786027 -117.948174 93 9012ft 135kts
09-Sep-18 10:04 34.782051 -117.903080 94 9475ft 135kts
09-Sep-18 10:05 34.759123 -117.862265 136 9513ft 159kts
09-Sep-18 10:06 34.723447 -117.828198 139 9529ft 166kts
09-Sep-18 10:07 34.686889 -117.793460 138 9527ft 167kts
09-Sep-18 10:08 34.651570 -117.759770 138 9527ft 168kts
09-Sep-18 10:09 34.614865 -117.724720 138 9526ft 168kts
09-Sep-18 10:10 34.579203 -117.690797 139 9526ft 168kts
09-Sep-18 10:11 34.542399 -117.655834 139 9528ft 168kts
09-Sep-18 10:12 34.505558 -117.620890 139 9526ft 168kts
09-Sep-18 10:13 34.468154 -117.585588 139 9267ft 182kts
09-Sep-18 10:14 34.426294 -117.546096 139 8383ft 196kts
09-Sep-18 10:15 34.382984 -117.505175 140 7487ft 199kts
09-Sep-18 10:16 34.339370 -117.464279 143 6626ft 197kts
09-Sep-18 10:17 34.288400 -117.455301 173 6497ft 181kts
09-Sep-18 10:18 34.243128 -117.429463 140 5752ft 195kts
09-Sep-18 10:19 34.201905 -117.386052 119 4658ft 198kts
09-Sep-18 10:20 34.172887 -117.330115 119 3579ft 198kts
09-Sep-18 10:21 34.150831 -117.282600 116 2556ft 134kts
09-Sep-18 10:22 34.135178 -117.249732 116 2543ft 117kts
09-Sep-18 10:23 34.120415 -117.218275 111 2351ft 94kts
09-Sep-18 10:24 34.101421 -117.213971 248 1680ft 105kts
09-Sep-18 10:25 34.095394 -117.235680 308 1135ft 20kts
09-Sep-18 10:26 34.095768 -117.236003 328 1135ft 0kts
09-Sep-18 10:27 34.095768 -117.236003 328 1135ft 0kts
09-Sep-18 10:28 34.097543 -117.233481 72 1135ft 26kts
09-Sep-18 10:29 34.100296 -117.226856 70 1135ft 15kts
09-Sep-18 10:30 34.101706 -117.224781 79 1135ft 0kts

Navigation Log

Ident Type
Flight plan parsing failed, navigation log unavailable